createdAt,value
2023-04-02T00:02:23.221Z,76.53
2023-04-02T00:05:34.607Z,76.63
2023-04-02T00:08:10.284Z,76.77
2023-04-02T00:10:46.071Z,76.68
2023-04-02T00:13:12.447Z,76.45
2023-04-02T00:15:41.383Z,76.50
2023-04-02T00:18:10.839Z,76.45
2023-04-02T00:20:40.720Z,76.61
2023-04-02T00:23:10.794Z,76.61
2023-04-02T00:25:43.106Z,76.63
2023-04-02T00:28:13.988Z,76.70
2023-04-02T00:30:51.364Z,76.70
2023-04-02T00:33:21.273Z,76.63
2023-04-02T00:35:50.498Z,76.56
2023-04-02T00:38:26.035Z,76.75
2023-04-02T00:40:56.075Z,76.70
2023-04-02T00:43:26.036Z,76.50
2023-04-02T00:45:56.541Z,76.93
2023-04-02T00:48:32.000Z,76.94
2023-04-02T00:51:08.117Z,76.99
2023-04-02T00:53:37.029Z,76.82
2023-04-02T00:56:11.642Z,77.12
2023-04-02T00:58:38.235Z,76.91
2023-04-02T01:01:16.651Z,77.15
2023-04-02T01:03:44.316Z,76.94
2023-04-02T01:06:16.829Z,76.94
2023-04-02T01:08:58.444Z,77.02
2023-04-02T01:11:43.606Z,77.15
2023-04-02T01:14:37.311Z,76.97
2023-04-02T01:17:26.433Z,77.08
2023-04-02T01:20:55.102Z,77.02
2023-04-02T01:23:27.009Z,76.89
2023-04-02T01:26:05.831Z,76.94
2023-04-02T01:28:47.275Z,76.99
2023-04-02T01:31:16.094Z,76.81
2023-04-02T01:33:42.691Z,76.94
2023-04-02T01:36:23.200Z,76.93
2023-04-02T01:39:12.303Z,76.99
2023-04-02T01:41:49.872Z,77.10
2023-04-02T01:44:26.432Z,76.90
2023-04-02T01:46:53.052Z,76.85
2023-04-02T01:49:22.487Z,77.11
2023-04-02T01:51:56.749Z,76.99
2023-04-02T01:54:25.060Z,77.02
2023-04-02T01:56:51.785Z,77.14
2023-04-02T01:59:22.122Z,77.10
2023-04-02T02:02:05.582Z,77.07
2023-04-02T02:04:33.695Z,77.09
2023-04-02T02:07:01.949Z,77.01
2023-04-02T02:09:32.428Z,76.96
2023-04-02T02:11:59.959Z,77.08
2023-04-02T02:14:28.672Z,77.18
2023-04-02T02:17:00.052Z,76.91
2023-04-02T02:19:32.762Z,76.88
2023-04-02T02:22:27.505Z,76.92
2023-04-02T02:24:55.720Z,76.87
2023-04-02T02:27:25.524Z,76.78
2023-04-02T02:30:04.174Z,76.99
2023-04-02T02:32:33.384Z,76.72
2023-04-02T02:35:44.999Z,76.79
2023-04-02T02:38:48.252Z,76.77
2023-04-02T02:41:33.437Z,76.88
2023-04-02T02:44:16.001Z,76.81
2023-04-02T02:46:53.543Z,76.86
2023-04-02T02:49:28.295Z,76.87
2023-04-02T02:52:13.751Z,76.69
2023-04-02T02:54:44.067Z,76.91
2023-04-02T02:57:15.751Z,76.76
2023-04-02T02:59:43.128Z,76.82
2023-04-02T03:02:09.787Z,76.74
2023-04-02T03:04:37.183Z,76.71
2023-04-02T03:07:06.074Z,76.81
2023-04-02T03:09:39.249Z,76.79
2023-04-02T03:12:39.757Z,76.65
2023-04-02T03:15:26.609Z,76.81
2023-04-02T03:18:12.068Z,76.78
2023-04-02T03:20:48.014Z,76.81
2023-04-02T03:23:37.170Z,76.84
2023-04-02T03:26:23.181Z,76.82
2023-04-02T03:28:55.680Z,76.97
2023-04-02T03:31:33.651Z,76.80
2023-04-02T03:34:14.015Z,76.75
2023-04-02T03:36:56.732Z,76.95
2023-04-02T03:39:29.998Z,76.97
2023-04-02T03:42:18.512Z,76.85
2023-04-02T03:44:50.849Z,76.91
2023-04-02T03:47:32.603Z,76.90
2023-04-02T03:50:12.015Z,76.98
2023-04-02T03:52:38.856Z,76.95
2023-04-02T03:55:17.834Z,76.96
2023-04-02T03:57:59.482Z,77.04
2023-04-02T04:00:38.508Z,77.02
2023-04-02T04:03:50.806Z,76.85
2023-04-02T04:06:31.655Z,76.97
2023-04-02T04:09:10.418Z,77.15
2023-04-02T04:11:51.514Z,77.09
2023-04-02T04:14:33.141Z,77.12
2023-04-02T04:17:09.716Z,76.88
2023-04-02T04:19:49.066Z,77.18
2023-04-02T04:22:19.579Z,77.01
2023-04-02T04:24:50.673Z,77.13
2023-04-02T04:27:45.996Z,77.21
2023-04-02T04:30:26.504Z,77.14
2023-04-02T04:36:35.908Z,77.13
2023-04-02T04:39:18.151Z,77.34
2023-04-02T04:41:51.627Z,77.33
2023-04-02T04:44:40.281Z,77.27
2023-04-02T04:47:35.334Z,77.29
2023-04-02T04:50:38.362Z,77.42
2023-04-02T04:53:18.944Z,77.44
2023-04-02T04:55:49.832Z,77.27
2023-04-02T04:58:25.824Z,77.28
2023-04-02T05:01:07.437Z,77.31
2023-04-02T05:03:50.577Z,77.65
2023-04-02T05:06:25.768Z,77.55
2023-04-02T05:08:57.035Z,77.69
2023-04-02T05:11:33.225Z,77.59
2023-04-02T05:14:20.717Z,77.58
2023-04-02T05:17:10.122Z,77.60
2023-04-02T05:19:50.357Z,77.52
2023-04-02T05:22:45.067Z,77.67
2023-04-02T05:25:22.301Z,77.70
2023-04-02T05:27:54.777Z,77.63
2023-04-02T05:30:40.173Z,77.60
2023-04-02T05:33:23.288Z,77.69
2023-04-02T05:35:55.666Z,77.71
2023-04-02T05:38:25.846Z,77.56
2023-04-02T05:41:26.833Z,77.68
2023-04-02T05:44:15.497Z,77.73
2023-04-02T05:46:49.229Z,77.67
2023-04-02T05:49:35.510Z,77.68
2023-04-02T05:52:06.871Z,77.65
2023-04-02T05:54:39.839Z,77.79
2023-04-02T05:57:14.990Z,77.48
2023-04-02T05:59:47.429Z,77.67
2023-04-02T06:02:16.953Z,77.70
2023-04-02T06:05:11.364Z,77.77
2023-04-02T06:07:49.603Z,77.69
2023-04-02T06:10:27.095Z,77.92
2023-04-02T06:13:03.325Z,77.87
2023-04-02T06:15:31.790Z,78.04
2023-04-02T06:18:19.886Z,77.87
2023-04-02T06:20:46.827Z,77.90
2023-04-02T06:23:21.529Z,78.03
2023-04-02T06:25:58.000Z,77.90
2023-04-02T06:28:35.875Z,77.95
2023-04-02T06:31:10.592Z,77.87
2023-04-02T06:33:37.183Z,77.89
2023-04-02T06:36:04.859Z,77.92
2023-04-02T06:38:32.323Z,77.96
2023-04-02T06:41:02.760Z,77.90
2023-04-02T06:43:43.905Z,77.89
2023-04-02T06:46:20.917Z,78.01
2023-04-02T06:48:51.720Z,77.93
2023-04-02T06:51:20.572Z,77.77
2023-04-02T06:53:48.474Z,77.76
2023-04-02T06:56:46.187Z,77.74
2023-04-02T06:59:29.511Z,77.72
2023-04-02T07:02:19.556Z,77.69
2023-04-02T07:04:50.184Z,77.64
2023-04-02T07:07:24.372Z,77.59
2023-04-02T07:13:28.534Z,77.89
2023-04-02T07:16:05.276Z,77.76
2023-04-02T07:19:05.537Z,77.74
2023-04-02T07:21:36.305Z,77.79
2023-04-02T07:24:12.891Z,77.84
2023-04-02T07:29:57.887Z,77.67
2023-04-02T07:32:39.539Z,77.64
2023-04-02T07:35:11.128Z,77.61
2023-04-02T07:37:56.631Z,77.58
2023-04-02T07:40:30.050Z,77.52
2023-04-02T07:43:11.717Z,77.41
2023-04-02T07:45:42.050Z,77.39
2023-04-02T07:48:40.460Z,77.38
2023-04-02T07:51:32.025Z,77.31
2023-04-02T07:57:09.710Z,77.25
2023-04-02T07:59:39.662Z,77.30
2023-04-02T08:02:06.129Z,77.23
2023-04-02T08:04:32.730Z,77.09
2023-04-02T08:06:59.375Z,77.27
2023-04-02T08:09:26.211Z,77.13
2023-04-02T08:11:52.733Z,76.84
2023-04-02T08:14:19.272Z,76.96
2023-04-02T08:16:46.082Z,77.02
2023-04-02T08:19:12.634Z,76.93
2023-04-02T08:21:39.050Z,76.94
2023-04-02T08:24:05.856Z,77.03
2023-04-02T08:26:32.318Z,76.93
2023-04-02T08:28:58.691Z,76.75
2023-04-02T08:31:25.266Z,76.82
2023-04-02T08:33:59.912Z,76.82
2023-04-02T08:36:33.924Z,76.69
2023-04-02T08:39:01.100Z,76.85
2023-04-02T08:41:28.102Z,76.72
2023-04-02T08:44:08.674Z,76.59
2023-04-02T08:46:46.245Z,76.80
2023-04-02T08:49:16.612Z,76.57
2023-04-02T08:51:45.348Z,76.67
2023-04-02T08:54:34.996Z,76.53
2023-04-02T08:57:36.053Z,76.65
2023-04-02T09:00:25.694Z,76.37
2023-04-02T09:02:58.926Z,76.23
2023-04-02T09:05:30.542Z,76.28
2023-04-02T09:08:01.391Z,76.11
2023-04-02T09:10:45.818Z,76.09
2023-04-02T09:13:28.507Z,75.98
2023-04-02T09:16:07.610Z,75.86
2023-04-02T09:18:34.448Z,75.83
2023-04-02T09:21:12.957Z,75.75
2023-04-02T09:23:40.876Z,75.59
2023-04-02T09:26:22.274Z,75.17
2023-04-02T09:28:55.330Z,75.21
2023-04-02T09:31:39.140Z,75.16
2023-04-02T09:34:32.003Z,74.69
2023-04-02T09:37:21.264Z,74.58
2023-04-02T09:39:47.803Z,74.37
2023-04-02T09:42:33.142Z,74.00
2023-04-02T09:45:22.728Z,73.84
2023-04-02T09:47:51.961Z,73.99
2023-04-02T09:50:21.454Z,74.01
2023-04-02T09:52:48.924Z,73.96
2023-04-02T09:55:18.668Z,73.79
2023-04-02T09:57:47.073Z,73.75
2023-04-02T10:00:29.808Z,73.43
2023-04-02T10:03:14.674Z,73.21
2023-04-02T10:05:43.153Z,73.25
2023-04-02T10:08:29.721Z,72.92
2023-04-02T10:10:59.710Z,73.06
2023-04-02T10:13:44.686Z,72.75
2023-04-02T10:16:13.909Z,72.86
2023-04-02T10:18:48.160Z,72.69
2023-04-02T10:21:37.307Z,72.83
2023-04-02T10:24:13.338Z,72.97
2023-04-02T10:26:58.050Z,72.92
2023-04-02T10:29:58.217Z,72.50
2023-04-02T10:32:37.854Z,72.08
2023-04-02T10:35:07.530Z,72.12
2023-04-02T10:37:46.838Z,71.92
2023-04-02T10:40:20.873Z,71.89
2023-04-02T10:43:28.299Z,72.21
2023-04-02T10:46:03.455Z,72.21
2023-04-02T10:48:49.248Z,72.33
2023-04-02T10:51:32.040Z,72.61
2023-04-02T10:54:05.857Z,72.80
2023-04-02T10:56:44.086Z,72.98
2023-04-02T10:59:21.265Z,72.83
2023-04-02T11:01:50.670Z,72.92
2023-04-02T11:04:42.236Z,72.94
2023-04-02T11:07:18.157Z,73.01
2023-04-02T11:09:48.614Z,73.15
2023-04-02T11:12:25.591Z,73.03
2023-04-02T11:14:54.141Z,73.27
2023-04-02T11:17:22.290Z,73.10
2023-04-02T11:19:48.746Z,73.19
2023-04-02T11:22:18.119Z,73.06
2023-04-02T11:24:48.516Z,73.19
2023-04-02T11:27:15.033Z,73.18
2023-04-02T11:29:44.513Z,73.41
2023-04-02T11:32:27.317Z,73.26
2023-04-02T11:35:05.981Z,73.38
2023-04-02T11:37:42.718Z,73.19
2023-04-02T11:40:12.092Z,73.21
2023-04-02T11:42:43.030Z,73.21
2023-04-02T11:45:21.520Z,73.00
2023-04-02T11:48:09.102Z,73.00
2023-04-02T11:50:40.576Z,72.99
2023-04-02T11:53:14.700Z,72.54
2023-04-02T11:55:45.940Z,72.27
2023-04-02T11:58:37.900Z,72.03
2023-04-02T12:01:34.917Z,71.72
2023-04-02T12:04:19.755Z,71.57
2023-04-02T12:07:26.805Z,71.21
2023-04-02T12:09:57.916Z,71.12
2023-04-02T12:12:24.325Z,71.03
2023-04-02T12:14:56.194Z,70.71
2023-04-02T12:17:32.016Z,70.72
2023-04-02T12:20:20.611Z,70.66
2023-04-02T12:22:53.909Z,70.68
2023-04-02T12:25:27.017Z,70.79
2023-04-02T12:28:14.418Z,71.18
2023-04-02T12:30:43.533Z,71.18
2023-04-02T12:33:17.229Z,71.47
2023-04-02T12:35:45.269Z,71.61
2023-04-02T12:38:20.974Z,71.68
2023-04-02T12:40:54.901Z,71.83
2023-04-02T12:43:30.037Z,71.92
2023-04-02T12:45:59.912Z,72.05
2023-04-02T12:48:28.099Z,72.12
2023-04-02T12:50:56.226Z,72.11
2023-04-02T12:53:28.446Z,72.18
2023-04-02T12:55:55.702Z,72.42
2023-04-02T12:58:37.177Z,72.45
2023-04-02T13:01:18.717Z,72.46
2023-04-02T13:04:03.802Z,72.56
2023-04-02T13:06:33.698Z,72.82
2023-04-02T13:09:01.786Z,72.67
2023-04-02T13:11:36.500Z,72.68
2023-04-02T13:14:05.804Z,72.78
2023-04-02T13:16:40.806Z,72.58
2023-04-02T13:19:22.952Z,72.33
2023-04-02T13:21:50.591Z,72.60
2023-04-02T13:24:25.588Z,72.82
2023-04-02T13:26:56.532Z,72.71
2023-04-02T13:29:32.105Z,72.72
2023-04-02T13:32:03.223Z,72.98
2023-04-02T13:34:30.796Z,72.94
2023-04-02T13:36:59.985Z,73.10
2023-04-02T13:39:27.022Z,72.97
2023-04-02T13:41:58.940Z,73.36
2023-04-02T13:44:27.867Z,73.53
2023-04-02T13:46:55.684Z,73.99
2023-04-02T13:49:24.516Z,74.22
2023-04-02T13:51:59.480Z,74.22
2023-04-02T13:54:25.997Z,74.43
2023-04-02T13:56:52.620Z,74.78
2023-04-02T13:59:19.162Z,75.17
2023-04-02T14:01:47.229Z,75.39
2023-04-02T14:04:21.856Z,75.69
2023-04-02T14:07:03.421Z,75.82
2023-04-02T14:09:52.913Z,76.20
2023-04-02T14:13:02.150Z,76.32
2023-04-02T14:15:54.864Z,76.09
2023-04-02T14:18:53.803Z,76.13
2023-04-02T14:21:31.750Z,76.24
2023-04-02T14:24:17.973Z,76.57
2023-04-02T14:27:18.161Z,76.74
2023-04-02T14:30:22.415Z,76.77
2023-04-02T14:32:58.453Z,76.86
2023-04-02T14:35:34.903Z,76.95
2023-04-02T14:38:37.634Z,77.00
2023-04-02T14:41:19.901Z,77.12
2023-04-02T14:44:02.239Z,77.31
2023-04-02T14:46:37.297Z,77.05
2023-04-02T14:49:40.285Z,77.21
2023-04-02T14:52:14.641Z,77.34
2023-04-02T14:55:02.754Z,77.35
2023-04-02T14:57:33.569Z,77.35
2023-04-02T15:00:06.988Z,77.40
2023-04-02T15:02:49.996Z,77.61
2023-04-02T15:05:52.734Z,77.81
2023-04-02T15:08:28.057Z,78.27
2023-04-02T15:11:05.671Z,78.22
2023-04-02T15:13:50.412Z,78.12
2023-04-02T15:16:23.652Z,78.37
2023-04-02T15:18:52.049Z,78.38
2023-04-02T15:21:29.858Z,78.59
2023-04-02T15:24:15.377Z,78.80
2023-04-02T15:26:51.927Z,79.02
2023-04-02T15:29:48.592Z,79.05
2023-04-02T15:32:36.418Z,79.32
2023-04-02T15:35:35.905Z,79.46
2023-04-02T15:38:29.213Z,79.45
2023-04-02T15:41:15.400Z,79.61
2023-04-02T15:43:52.162Z,79.48
2023-04-02T15:46:26.521Z,79.73
2023-04-02T15:49:01.360Z,79.59
2023-04-02T15:52:01.382Z,79.69
2023-04-02T15:54:42.955Z,79.77
2023-04-02T15:57:34.181Z,79.90
2023-04-02T16:00:14.770Z,79.93
2023-04-02T16:03:11.521Z,80.20
2023-04-02T16:06:25.412Z,80.20
2023-04-02T16:09:07.058Z,80.25
2023-04-02T16:11:34.266Z,80.17
2023-04-02T16:14:27.240Z,79.88
2023-04-02T16:17:00.887Z,80.19
2023-04-02T16:19:45.015Z,80.21
2023-04-02T16:22:24.456Z,80.39
2023-04-02T16:25:01.599Z,80.26
2023-04-02T16:28:13.352Z,80.29
2023-04-02T16:31:17.560Z,80.22
2023-04-02T16:34:02.543Z,80.30
2023-04-02T16:37:05.181Z,80.07
2023-04-02T16:39:43.609Z,80.21
2023-04-02T16:42:18.459Z,80.33
2023-04-02T16:45:09.852Z,80.07
2023-04-02T16:47:50.276Z,80.36
2023-04-02T16:50:25.892Z,80.20
2023-04-02T16:52:56.949Z,80.01
2023-04-02T16:55:37.427Z,80.09
2023-04-02T16:58:11.579Z,80.41
2023-04-02T17:00:48.240Z,80.44
2023-04-02T17:03:41.246Z,80.45
2023-04-02T17:06:28.876Z,80.33
2023-04-02T17:09:14.576Z,80.31
2023-04-02T17:11:48.255Z,80.48
2023-04-02T17:14:30.590Z,80.50
2023-04-02T17:17:02.200Z,80.50
2023-04-02T17:19:30.828Z,80.48
2023-04-02T17:22:03.373Z,80.47
2023-04-02T17:24:33.285Z,80.27
2023-04-02T17:27:06.156Z,80.50
2023-04-02T17:29:39.145Z,80.47
2023-04-02T17:32:16.874Z,80.50
2023-04-02T17:34:43.441Z,80.29
2023-04-02T17:37:29.484Z,80.52
2023-04-02T17:40:26.429Z,80.20
2023-04-02T17:43:26.829Z,80.53
2023-04-02T17:45:56.932Z,80.29
2023-04-02T17:48:42.295Z,80.27
2023-04-02T17:51:15.125Z,80.10
2023-04-02T17:54:10.918Z,80.57
2023-04-02T17:56:46.418Z,80.57
2023-04-02T17:59:58.392Z,80.52
2023-04-02T18:03:02.379Z,80.75
2023-04-02T18:05:31.906Z,80.46
2023-04-02T18:08:22.374Z,80.48
2023-04-02T18:11:10.679Z,80.59
2023-04-02T18:13:42.327Z,80.36
2023-04-02T18:16:33.690Z,80.54
2023-04-02T18:19:18.112Z,80.56
2023-04-02T18:21:51.546Z,80.37
2023-04-02T18:25:10.558Z,80.22
2023-04-02T18:27:51.706Z,80.47
2023-04-02T18:30:32.033Z,80.44
2023-04-02T18:33:07.685Z,80.37
2023-04-02T18:35:39.561Z,80.36
2023-04-02T18:38:11.801Z,80.41
2023-04-02T18:40:55.956Z,80.49
2023-04-02T18:43:37.539Z,80.31
2023-04-02T18:46:22.340Z,80.35
2023-04-02T18:49:22.647Z,80.12
2023-04-02T18:51:54.480Z,80.39
2023-04-02T18:54:35.570Z,80.48
2023-04-02T18:57:11.803Z,80.27
2023-04-02T18:59:46.727Z,80.23
2023-04-02T19:02:40.977Z,80.55
2023-04-02T19:05:19.142Z,80.11
2023-04-02T19:07:50.722Z,80.49
2023-04-02T19:10:31.863Z,80.06
2023-04-02T19:12:58.322Z,80.30
2023-04-02T19:15:38.968Z,80.19
2023-04-02T19:18:38.196Z,80.05
2023-04-02T19:21:46.854Z,79.73
2023-04-02T19:24:48.709Z,79.91
2023-04-02T19:27:34.329Z,79.92
2023-04-02T19:30:22.170Z,80.06
2023-04-02T19:33:02.578Z,79.76
2023-04-02T19:35:57.241Z,79.84
2023-04-02T19:38:33.827Z,79.70
2023-04-02T19:41:22.782Z,79.82
2023-04-02T19:43:50.213Z,79.92
2023-04-02T19:46:29.010Z,79.65
2023-04-02T19:49:26.795Z,79.55
2023-04-02T19:51:55.716Z,79.76
2023-04-02T19:54:32.484Z,79.29
2023-04-02T19:57:10.909Z,79.45
2023-04-02T19:59:43.987Z,79.31
2023-04-02T20:02:15.673Z,79.19
2023-04-02T20:04:43.112Z,79.18
2023-04-02T20:07:10.805Z,79.01
2023-04-02T20:09:38.079Z,79.05
2023-04-02T20:12:05.857Z,78.75
2023-04-02T20:14:33.474Z,78.81
2023-04-02T20:17:19.469Z,79.03
2023-04-02T20:19:53.788Z,78.14
2023-04-02T20:22:21.319Z,78.44
2023-04-02T20:24:51.569Z,78.70
2023-04-02T20:27:25.070Z,78.42
2023-04-02T20:29:58.627Z,78.42
2023-04-02T20:32:28.983Z,78.44
2023-04-02T20:35:04.140Z,78.15
2023-04-02T20:37:34.368Z,78.13
2023-04-02T20:40:01.884Z,77.98
2023-04-02T20:42:29.383Z,77.77
2023-04-02T20:44:59.399Z,77.84
2023-04-02T20:47:26.980Z,77.66
2023-04-02T20:49:59.480Z,77.77
2023-04-02T20:52:35.031Z,77.60
2023-04-02T20:55:11.912Z,77.33
2023-04-02T20:57:44.848Z,77.18
2023-04-02T21:00:37.859Z,77.22
2023-04-02T21:03:05.110Z,76.78
2023-04-02T21:05:37.990Z,77.25
2023-04-02T21:08:05.815Z,77.14
2023-04-02T21:10:32.734Z,76.81
2023-04-02T21:13:06.085Z,76.98
2023-04-02T21:15:44.084Z,76.88
2023-04-02T21:18:10.728Z,76.76
2023-04-02T21:20:37.172Z,76.77
2023-04-02T21:23:03.516Z,76.89
2023-04-02T21:25:29.915Z,76.37
2023-04-02T21:27:56.376Z,76.63
2023-04-02T21:30:23.030Z,76.51
2023-04-02T21:32:49.402Z,76.42
2023-04-02T21:35:16.022Z,76.54
2023-04-02T21:37:44.097Z,76.27
2023-04-02T21:40:10.991Z,76.12
2023-04-02T21:42:37.387Z,76.32
2023-04-02T21:45:04.120Z,76.01
2023-04-02T21:47:30.598Z,76.29
2023-04-02T21:49:57.064Z,76.23
2023-04-02T21:52:23.585Z,76.06
2023-04-02T21:54:50.019Z,76.24
2023-04-02T21:57:17.840Z,76.14
2023-04-02T21:59:44.999Z,75.95
2023-04-02T22:02:12.071Z,75.91
2023-04-02T22:04:38.501Z,76.23
2023-04-02T22:07:04.886Z,75.68
2023-04-02T22:09:31.409Z,75.71
2023-04-02T22:11:59.480Z,75.55
2023-04-02T22:14:27.321Z,75.62
2023-04-02T22:16:54.149Z,75.81
2023-04-02T22:19:21.334Z,75.42
2023-04-02T22:21:47.707Z,75.55
2023-04-02T22:24:18.648Z,75.51
2023-04-02T22:26:46.042Z,75.35
2023-04-02T22:29:12.482Z,75.35
2023-04-02T22:31:39.136Z,75.15
2023-04-02T22:34:06.488Z,75.19
2023-04-02T22:36:33.548Z,75.14
2023-04-02T22:39:01.711Z,74.85
2023-04-02T22:41:29.669Z,74.96
2023-04-02T22:43:56.759Z,74.90
2023-04-02T22:46:25.050Z,74.94
2023-04-02T22:48:52.051Z,74.74
2023-04-02T22:51:20.990Z,74.73
2023-04-02T22:53:48.142Z,74.78
2023-04-02T22:56:19.721Z,74.47
2023-04-02T22:58:46.325Z,74.71
2023-04-02T23:01:22.739Z,74.56
2023-04-02T23:03:49.422Z,74.64
2023-04-02T23:06:18.018Z,74.61
2023-04-02T23:08:45.515Z,74.55
2023-04-02T23:11:18.364Z,74.42
2023-04-02T23:13:47.809Z,74.03
2023-04-02T23:16:15.521Z,73.92
2023-04-02T23:18:47.228Z,74.24
2023-04-02T23:21:14.042Z,74.03
2023-04-02T23:23:40.924Z,73.74
2023-04-02T23:26:11.008Z,74.11
2023-04-02T23:28:38.783Z,74.16
2023-04-02T23:31:07.600Z,74.22
2023-04-02T23:33:34.490Z,74.14
2023-04-02T23:36:07.061Z,74.07
2023-04-02T23:38:33.753Z,73.94
2023-04-02T23:41:00.371Z,74.14
2023-04-02T23:43:27.298Z,74.02
2023-04-02T23:45:53.804Z,73.76
2023-04-02T23:48:20.241Z,73.79
2023-04-02T23:50:46.733Z,73.86
2023-04-02T23:53:13.756Z,74.04
2023-04-02T23:55:41.393Z,73.98
2023-04-02T23:58:07.925Z,73.72
